createdAt,value
2023-01-24T00:00:57.178Z,0.70
2023-01-24T00:03:27.291Z,0.90
2023-01-24T00:05:57.525Z,0.60
2023-01-24T00:08:27.516Z,0.60
2023-01-24T00:11:03.097Z,0.50
2023-01-24T00:13:34.392Z,0.90
2023-01-24T00:16:11.857Z,0.80
2023-01-24T00:18:41.895Z,0.80
2023-01-24T00:21:15.210Z,0.60
2023-01-24T00:26:16.766Z,0.50
2023-01-24T00:28:49.294Z,0.80
2023-01-24T00:31:22.463Z,0.40
2023-01-24T00:33:52.693Z,0.50
2023-01-24T00:36:22.861Z,0.60
2023-01-24T00:38:52.887Z,1.90
2023-01-24T00:41:22.898Z,1.50
2023-01-24T00:46:29.193Z,0.70
2023-01-24T00:51:31.716Z,0.70
2023-01-24T00:54:01.799Z,0.60
2023-01-24T00:56:31.836Z,0.70
2023-01-24T00:59:01.779Z,0.80
2023-01-24T01:01:34.493Z,0.70
2023-01-24T01:04:04.607Z,0.30
2023-01-24T01:06:34.639Z,0.60
2023-01-24T01:09:04.644Z,0.60
2023-01-24T01:11:34.687Z,0.70
2023-01-24T01:14:04.686Z,0.50
2023-01-24T01:16:38.826Z,0.80
2023-01-24T01:19:09.423Z,0.50
2023-01-24T01:29:10.471Z,0.70
2023-01-24T01:31:44.098Z,0.60
2023-01-24T01:34:14.239Z,0.50
2023-01-24T01:39:14.965Z,0.40
2023-01-24T01:41:44.969Z,0.70
2023-01-24T01:44:34.964Z,0.60
2023-01-24T01:47:08.827Z,0.30
2023-01-24T01:49:39.179Z,0.70
2023-01-24T01:52:10.217Z,0.60
2023-01-24T01:54:45.728Z,0.60
2023-01-24T01:57:19.228Z,0.50
2023-01-24T01:59:53.630Z,0.50
2023-01-24T02:02:26.422Z,0.50
2023-01-24T02:04:59.598Z,0.40
2023-01-24T02:07:35.895Z,0.50
2023-01-24T02:10:07.886Z,0.50
2023-01-24T02:12:43.179Z,0.50
2023-01-24T02:15:29.661Z,0.70
2023-01-24T02:18:04.552Z,0.40
2023-01-24T02:20:41.386Z,0.50
2023-01-24T02:23:27.999Z,0.70
2023-01-24T02:26:09.270Z,0.50
2023-01-24T02:28:41.576Z,0.40
2023-01-24T02:31:11.709Z,0.30
2023-01-24T02:36:21.020Z,0.60
2023-01-24T02:38:56.984Z,0.60
2023-01-24T02:41:36.688Z,0.30
2023-01-24T02:44:11.908Z,0.60
2023-01-24T02:46:42.550Z,0.60
2023-01-24T02:49:13.640Z,0.50
2023-01-24T02:57:11.924Z,0.70
2023-01-24T03:12:40.573Z,0.40
2023-01-24T03:15:24.605Z,0.50
2023-01-24T03:29:02.364Z,0.40
2023-01-24T03:31:46.091Z,0.50
2023-01-24T03:34:28.940Z,0.20
2023-01-24T03:42:12.093Z,1.50
2023-01-24T03:44:45.124Z,0.40
2023-01-24T03:52:30.330Z,0.30
2023-01-24T03:55:09.240Z,0.30
2023-01-24T03:57:39.969Z,0.40
2023-01-24T04:00:15.907Z,0.40
2023-01-24T04:02:49.055Z,0.40
2023-01-24T04:05:24.044Z,0.40
2023-01-24T04:07:54.284Z,0.40
2023-01-24T04:10:24.997Z,0.10
2023-01-24T04:12:55.030Z,0.10
2023-01-24T04:15:29.986Z,0.50
2023-01-24T04:18:19.402Z,0.30
2023-01-24T04:23:20.039Z,0.20
2023-01-24T04:25:55.901Z,0.30
2023-01-24T04:31:04.164Z,0.40
2023-01-24T04:36:33.095Z,0.50
2023-01-24T04:39:04.619Z,0.30
2023-01-24T04:41:40.968Z,0.30
2023-01-24T04:44:11.081Z,0.50
2023-01-24T04:46:44.460Z,0.30
2023-01-24T04:49:15.024Z,0.50
2023-01-24T04:54:24.004Z,0.70
2023-01-24T04:56:54.635Z,0.30
2023-01-24T04:59:24.628Z,0.30
2023-01-24T05:01:57.646Z,0.30
2023-01-24T05:07:07.873Z,0.40
2023-01-24T05:14:42.895Z,0.40
2023-01-24T05:17:16.138Z,0.50
2023-01-24T05:24:48.025Z,0.30
2023-01-24T05:27:19.197Z,1.10
2023-01-24T05:29:57.439Z,0.50
2023-01-24T05:32:30.912Z,0.40
2023-01-24T05:35:01.037Z,0.50
2023-01-24T05:42:32.163Z,0.30
2023-01-24T05:45:02.396Z,0.40
2023-01-24T05:47:35.543Z,0.40
2023-01-24T05:50:05.645Z,0.30
2023-01-24T05:52:35.676Z,0.40
2023-01-24T05:55:05.921Z,0.50
2023-01-24T05:57:41.545Z,0.30
2023-01-24T06:00:21.633Z,0.50
2023-01-24T06:03:20.455Z,0.40
2023-01-24T06:05:51.376Z,0.60
2023-01-24T06:08:22.595Z,0.50
2023-01-24T06:13:26.113Z,0.40
2023-01-24T06:16:03.417Z,0.50
2023-01-24T06:18:37.589Z,0.60
2023-01-24T06:21:19.354Z,0.50
2023-01-24T06:23:50.079Z,0.50
2023-01-24T06:26:21.063Z,0.50
2023-01-24T06:28:51.753Z,0.60
2023-01-24T06:31:35.118Z,0.80
2023-01-24T06:34:19.256Z,0.60
2023-01-24T06:37:01.684Z,0.60
2023-01-24T06:39:32.448Z,0.70
2023-01-24T06:42:03.054Z,0.70
2023-01-24T06:44:33.613Z,0.60
2023-01-24T06:47:03.574Z,2.00
2023-01-24T06:49:36.151Z,0.20
2023-01-24T06:52:06.565Z,0.50
2023-01-24T06:54:37.936Z,0.30
2023-01-24T06:57:07.883Z,0.70
2023-01-24T06:59:37.869Z,0.70
2023-01-24T07:02:08.349Z,0.60
2023-01-24T07:04:41.002Z,0.50
2023-01-24T07:07:10.982Z,0.50
2023-01-24T07:12:11.998Z,0.50
2023-01-24T07:14:42.519Z,0.80
2023-01-24T07:17:13.119Z,0.60
2023-01-24T07:19:46.306Z,0.70
2023-01-24T07:22:17.388Z,0.40
2023-01-24T07:24:48.017Z,0.60
2023-01-24T07:27:18.871Z,0.60
2023-01-24T07:29:49.307Z,0.50
2023-01-24T07:32:19.539Z,0.60
2023-01-24T07:34:52.217Z,0.60
2023-01-24T07:37:24.213Z,0.30
2023-01-24T07:39:54.201Z,-0.60
2023-01-24T07:44:54.983Z,0.80
2023-01-24T07:47:25.381Z,0.60
2023-01-24T07:49:58.077Z,0.70
2023-01-24T07:54:58.397Z,0.70
2023-01-24T08:02:28.981Z,0.50
2023-01-24T08:05:01.716Z,0.90
2023-01-24T08:07:31.659Z,0.60
2023-01-24T08:10:01.660Z,0.60
2023-01-24T08:12:31.672Z,0.90
2023-01-24T08:15:02.130Z,0.80
2023-01-24T08:17:32.112Z,0.60
2023-01-24T08:20:04.793Z,1.00
2023-01-24T08:22:37.547Z,0.40
2023-01-24T08:25:09.681Z,0.80
2023-01-24T08:27:44.411Z,0.80
2023-01-24T08:30:16.934Z,0.90
2023-01-24T08:32:47.040Z,0.80
2023-01-24T08:35:19.828Z,1.20
2023-01-24T08:40:21.246Z,1.00
2023-01-24T08:42:51.561Z,0.80
2023-01-24T08:47:55.390Z,0.80
2023-01-24T08:50:28.088Z,0.80
2023-01-24T08:52:59.172Z,1.00
2023-01-24T08:55:29.292Z,1.30
2023-01-24T08:58:03.413Z,1.20
2023-01-24T09:00:33.880Z,1.00
2023-01-24T09:03:04.570Z,1.20
2023-01-24T09:05:37.821Z,1.10
2023-01-24T09:08:08.522Z,1.10
2023-01-24T09:10:40.598Z,1.00
2023-01-24T09:13:11.358Z,1.20
2023-01-24T09:20:44.451Z,0.90
2023-01-24T09:23:15.661Z,0.90
2023-01-24T09:25:52.650Z,1.10
2023-01-24T09:28:23.480Z,1.30
2023-01-24T09:30:54.439Z,1.20
2023-01-24T09:35:59.330Z,1.30
2023-01-24T09:38:29.870Z,1.20
2023-01-24T09:46:20.734Z,1.60
2023-01-24T09:56:34.426Z,1.50
2023-01-24T10:07:19.606Z,1.70
2023-01-24T10:10:02.628Z,1.70
2023-01-24T10:12:46.640Z,1.60
2023-01-24T10:15:30.687Z,1.60
2023-01-24T10:21:10.318Z,1.70
2023-01-24T10:36:34.056Z,1.70
2023-01-24T10:46:55.176Z,1.70
2023-01-24T10:52:14.388Z,1.70
2023-01-24T10:54:50.408Z,1.70
2023-01-24T11:00:06.894Z,1.80
2023-01-24T11:05:09.638Z,1.90
2023-01-24T11:10:22.612Z,1.80
2023-01-24T11:12:58.071Z,1.90
2023-01-24T11:15:30.668Z,1.90
2023-01-24T11:18:03.072Z,1.80
2023-01-24T11:23:14.885Z,1.90
2023-01-24T11:28:33.217Z,2.00
2023-01-24T11:36:30.605Z,2.00
2023-01-24T11:44:37.672Z,2.10
2023-01-24T11:52:41.468Z,2.00
2023-01-24T11:55:17.405Z,2.00
2023-01-24T12:03:26.738Z,2.10
2023-01-24T12:14:24.861Z,2.00
2023-01-24T12:17:09.155Z,2.00
2023-01-24T12:19:54.104Z,2.00
2023-01-24T12:30:03.235Z,2.00
2023-01-24T12:43:01.585Z,2.00
2023-01-24T12:48:17.500Z,1.90
2023-01-24T12:50:55.126Z,1.90
2023-01-24T12:53:31.013Z,1.90
2023-01-24T12:58:38.203Z,1.90
2023-01-24T13:01:34.528Z,1.90
2023-01-24T13:14:32.117Z,1.80
2023-01-24T13:25:22.744Z,1.80
2023-01-24T13:33:07.053Z,1.70
2023-01-24T13:38:20.263Z,1.70
2023-01-24T13:44:02.902Z,1.70
2023-01-24T13:57:30.186Z,1.80
2023-01-24T14:00:27.852Z,1.70
2023-01-24T14:03:17.033Z,1.70
2023-01-24T14:14:38.636Z,1.70
2023-01-24T14:17:53.048Z,1.60
2023-01-24T14:23:01.440Z,1.60
2023-01-24T14:28:24.540Z,1.60
2023-01-24T14:47:02.179Z,1.60
2023-01-24T15:05:25.475Z,1.50
2023-01-24T15:12:58.969Z,1.50
2023-01-24T15:18:05.765Z,1.50
2023-01-24T15:38:33.823Z,1.30
2023-01-24T15:43:49.326Z,1.30
2023-01-24T15:56:52.475Z,1.20
2023-01-24T16:17:04.475Z,1.20
2023-01-24T19:26:21.070Z,0.70
2023-01-24T21:50:19.470Z,0.00
2023-01-24T21:52:55.324Z,0.00
2023-01-24T22:08:18.143Z,0.00
2023-01-24T22:15:49.144Z,0.00
2023-01-24T22:20:54.318Z,0.10
2023-01-24T22:23:29.941Z,0.00
2023-01-24T22:26:06.628Z,0.00
2023-01-24T22:28:37.346Z,0.00
2023-01-24T22:31:08.263Z,0.10
2023-01-24T22:33:38.955Z,0.00
2023-01-24T22:36:11.506Z,-0.10
2023-01-24T22:38:44.249Z,0.00
2023-01-24T22:53:47.964Z,-0.10
2023-01-24T23:08:51.837Z,0.00
2023-01-24T23:11:23.032Z,0.00
2023-01-24T23:16:50.189Z,0.10
2023-01-24T23:19:48.459Z,0.00
2023-01-24T23:22:20.047Z,-0.20
2023-01-24T23:24:53.658Z,-0.10
2023-01-24T23:27:25.340Z,-0.10
2023-01-24T23:30:09.912Z,-0.20
2023-01-24T23:32:44.238Z,-0.20
2023-01-24T23:35:15.680Z,-0.20
2023-01-24T23:40:20.643Z,-0.20
2023-01-24T23:45:22.609Z,-0.30
2023-01-24T23:55:25.819Z,-0.20
